Time;durP1;ratioP1;P1;durP2;ratioP2;P2;SDS_P1;SDS_P2;PMS_P1;PMS_P2;Temp;Humidity;BMP_temperature;BMP_pressure;BME280_temperature;BME280_humidity;BME280_pressure;Samples;Min_cycle;Max_cycle;Signal;HPM_P1;HPM_P2
2023/10/02 00:01:36;;;;;;;;;;;22.20;58.90;;;;;;1511008;77;1165;-59
2023/10/02 00:03:41;;;;;;;;;;;22.20;58.10;;;;;;1518051;76;753;-59
2023/10/02 00:05:50;;;;;;;;;;;22.20;58.40;;;;;;1512947;77;1918;-58
2023/10/02 00:07:48;;;;;;;;;;;22.20;58.90;;;;;;1504309;77;1601;-58
2023/10/02 00:09:50;;;;;;;;;;;22.10;59.20;;;;;;1508818;77;815;-59
2023/10/02 00:11:52;;;;;;;;;;;22.20;59.10;;;;;;1512138;78;1168;-58
2023/10/02 00:14:18;;;;;;;;;;;22.10;59.20;;;;;;1513368;78;752;-59
2023/10/02 00:15:58;;;;;;;;;;;22.10;59.30;;;;;;1508935;78;1518;-60
2023/10/02 00:18:00;;;;;;;;;;;22.20;59.00;;;;;;1509625;78;752;-60
2023/10/02 00:20:13;;;;;;;;;;;22.10;58.00;;;;;;1519119;78;742;-59
2023/10/02 00:22:06;;;;;;;;;;;22.20;57.80;;;;;;1512762;78;1597;-59
2023/10/02 00:24:08;;;;;;;;;;;22.20;57.80;;;;;;1513905;78;783;-59
2023/10/02 00:26:10;;;;;;;;;;;22.10;58.10;;;;;;1509647;78;1940;-59
2023/10/02 00:28:14;;;;;;;;;;;22.10;57.70;;;;;;1519418;77;1117;-60
2023/10/02 00:30:16;;;;;;;;;;;22.10;57.30;;;;;;1522674;77;1213;-60
2023/10/02 00:32:26;;;;;;;;;;;22.10;57.20;;;;;;1523034;77;728;-60
2023/10/02 00:34:32;;;;;;;;;;;22.10;57.10;;;;;;1520147;77;1613;-60
2023/10/02 00:36:36;;;;;;;;;;;22.10;56.90;;;;;;1516949;77;704;-59
2023/10/02 00:38:37;;;;;;;;;;;22.10;57.20;;;;;;1522247;77;784;-60
2023/10/02 00:40:39;;;;;;;;;;;22.10;57.30;;;;;;1516007;77;1285;-59
2023/10/02 00:42:41;;;;;;;;;;;22.10;57.30;;;;;;1519258;77;756;-59
2023/10/02 00:44:58;;;;;;;;;;;22.10;57.60;;;;;;1518623;77;1930;-60
2023/10/02 00:46:57;;;;;;;;;;;22.10;57.30;;;;;;1514062;77;1469;-59
2023/10/02 00:49:23;;;;;;;;;;;22.20;57.70;;;;;;1522322;77;1478;-59
2023/10/02 00:51:06;;;;;;;;;;;22.10;57.20;;;;;;1516573;77;1458;-59
2023/10/02 00:53:06;;;;;;;;;;;22.20;57.60;;;;;;1516789;77;1608;-60
2023/10/02 00:55:08;;;;;;;;;;;22.20;57.50;;;;;;1520087;77;719;-58
2023/10/02 00:57:16;;;;;;;;;;;22.10;57.60;;;;;;1519203;77;764;-57
2023/10/02 00:59:15;;;;;;;;;;;22.10;57.80;;;;;;1514982;77;1975;-59
2023/10/02 01:01:19;;;;;;;;;;;22.20;57.60;;;;;;1519121;77;1153;-57
2023/10/02 01:03:22;;;;;;;;;;;22.10;57.80;;;;;;1513865;77;1648;-60
2023/10/02 01:05:30;;;;;;;;;;;22.20;57.10;;;;;;1525853;77;1917;-58
2023/10/02 01:07:28;;;;;;;;;;;22.20;56.90;;;;;;1520230;77;1454;-59
2023/10/02 01:09:30;;;;;;;;;;;22.10;56.80;;;;;;1524682;77;761;-59
2023/10/02 01:11:35;;;;;;;;;;;22.10;56.70;;;;;;1517026;77;1090;-57
2023/10/02 01:13:38;;;;;;;;;;;22.10;56.70;;;;;;1519833;77;728;-61
2023/10/02 01:15:40;;;;;;;;;;;22.20;56.80;;;;;;1516929;77;749;-59
2023/10/02 01:17:45;;;;;;;;;;;22.10;56.60;;;;;;1519243;77;1524;-58
2023/10/02 01:19:57;;;;;;;;;;;22.10;56.80;;;;;;1528333;77;1522;-59
2023/10/02 01:21:59;;;;;;;;;;;22.10;56.50;;;;;;1516463;77;1135;-59
2023/10/02 01:24:07;;;;;;;;;;;22.10;56.40;;;;;;1517307;77;745;-56
2023/10/02 01:26:09;;;;;;;;;;;22.10;56.10;;;;;;1517535;77;1915;-59
2023/10/02 01:28:13;;;;;;;;;;;22.10;56.00;;;;;;1520056;77;692;-57
2023/10/02 01:30:17;;;;;;;;;;;22.10;56.00;;;;;;1519723;77;1725;-59
2023/10/02 01:32:18;;;;;;;;;;;22.10;56.10;;;;;;1519366;77;1505;-58
2023/10/02 01:34:39;;;;;;;;;;;22.10;56.30;;;;;;1524576;77;687;-59
2023/10/02 01:36:41;;;;;;;;;;;22.20;56.20;;;;;;1513295;77;1775;-59
2023/10/02 01:38:44;;;;;;;;;;;22.20;56.10;;;;;;1518061;77;1766;-57
2023/10/02 01:40:48;;;;;;;;;;;22.10;56.10;;;;;;1525279;77;1074;-62
2023/10/02 01:42:50;;;;;;;;;;;22.10;56.20;;;;;;1526424;77;812;-59
2023/10/02 01:44:55;;;;;;;;;;;22.10;55.80;;;;;;1518993;77;1577;-61
2023/10/02 01:46:55;;;;;;;;;;;22.20;55.70;;;;;;1519705;77;1697;-60
2023/10/02 01:48:57;;;;;;;;;;;22.10;55.90;;;;;;1526263;77;762;-58
2023/10/02 01:51:15;;;;;;;;;;;22.10;56.30;;;;;;1522127;77;1143;-59
2023/10/02 01:53:26;;;;;;;;;;;22.20;56.00;;;;;;1514587;77;1646;-59
2023/10/02 01:55:08;;;;;;;;;;;22.10;56.00;;;;;;1512388;77;1378;-58
2023/10/02 01:57:24;;;;;;;;;;;22.20;56.00;;;;;;1515456;77;698;-57
2023/10/02 01:59:21;;;;;;;;;;;22.20;55.90;;;;;;1519894;77;1789;-60
2023/10/02 02:01:21;;;;;;;;;;;22.10;55.70;;;;;;1523730;77;1148;-60
2023/10/02 02:03:23;;;;;;;;;;;22.10;55.80;;;;;;1515296;77;800;-59
2023/10/02 02:05:25;;;;;;;;;;;22.20;55.60;;;;;;1510916;77;1944;-58
2023/10/02 02:07:29;;;;;;;;;;;22.10;55.70;;;;;;1515568;77;732;-60
2023/10/02 02:09:31;;;;;;;;;;;22.10;56.10;;;;;;1512551;77;1697;-59
2023/10/02 02:11:34;;;;;;;;;;;22.10;56.10;;;;;;1517407;77;1139;-61
2023/10/02 02:13:44;;;;;;;;;;;22.10;56.00;;;;;;1519831;77;1368;-58
2023/10/02 02:15:41;;;;;;;;;;;22.10;55.80;;;;;;1515690;77;1665;-59
2023/10/02 02:17:43;;;;;;;;;;;22.10;55.80;;;;;;1521560;77;1919;-59
2023/10/02 02:19:48;;;;;;;;;;;22.10;55.90;;;;;;1515899;77;801;-59
2023/10/02 02:21:51;;;;;;;;;;;22.10;55.70;;;;;;1522342;77;1142;-58
2023/10/02 02:24:14;;;;;;;;;;;22.10;55.80;;;;;;1519986;77;747;-59
2023/10/02 02:25:57;;;;;;;;;;;22.10;55.90;;;;;;1513159;77;1932;-59
2023/10/02 02:28:00;;;;;;;;;;;22.10;55.90;;;;;;1509269;77;1402;-59
2023/10/02 02:30:10;;;;;;;;;;;22.10;56.00;;;;;;1517833;77;1227;-60
2023/10/02 02:32:09;;;;;;;;;;;22.10;55.90;;;;;;1523095;77;1773;-60
2023/10/02 02:34:16;;;;;;;;;;;22.20;55.90;;;;;;1522753;77;843;-59
2023/10/02 02:36:21;;;;;;;;;;;22.10;55.80;;;;;;1524176;77;712;-61
2023/10/02 02:38:22;;;;;;;;;;;22.10;55.90;;;;;;1523005;77;1810;-58
2023/10/02 02:40:27;;;;;;;;;;;22.10;55.90;;;;;;1520575;77;1158;-58
2023/10/02 02:42:30;;;;;;;;;;;22.10;56.00;;;;;;1514365;77;1592;-58
2023/10/02 02:44:43;;;;;;;;;;;22.10;55.90;;;;;;1524012;77;737;-59
2023/10/02 02:46:53;;;;;;;;;;;22.10;55.80;;;;;;1528753;76;1896;-60
2023/10/02 02:48:55;;;;;;;;;;;22.10;55.80;;;;;;1518570;77;1597;-60
2023/10/02 02:50:52;;;;;;;;;;;22.10;56.00;;;;;;1514719;77;1194;-58
2023/10/02 02:55:15;;;;;;;;;;;22.10;56.00;;;;;;1516738;77;1637;-61
2023/10/02 02:57:25;;;;;;;;;;;22.10;55.90;;;;;;1523326;77;813;-58
2023/10/02 02:59:28;;;;;;;;;;;22.10;55.70;;;;;;1516245;77;1639;-58
2023/10/02 03:01:30;;;;;;;;;;;22.10;56.20;;;;;;1520780;77;1174;-58
2023/10/02 03:03:33;;;;;;;;;;;22.10;56.00;;;;;;1519102;77;698;-58
2023/10/02 03:05:38;;;;;;;;;;;22.10;56.00;;;;;;1527840;77;1906;-58
2023/10/02 03:07:41;;;;;;;;;;;22.10;55.80;;;;;;1518593;77;691;-59
2023/10/02 03:09:43;;;;;;;;;;;22.10;55.60;;;;;;1518840;77;1586;-58
2023/10/02 03:11:45;;;;;;;;;;;22.10;55.40;;;;;;1520287;77;1146;-61
2023/10/02 03:13:50;;;;;;;;;;;22.10;55.30;;;;;;1522905;77;739;-59
2023/10/02 03:15:53;;;;;;;;;;;22.10;55.50;;;;;;1523974;77;759;-62
2023/10/02 03:17:58;;;;;;;;;;;22.10;55.50;;;;;;1518618;77;693;-61
2023/10/02 03:20:00;;;;;;;;;;;22.10;55.70;;;;;;1522071;77;1675;-62
2023/10/02 03:22:02;;;;;;;;;;;22.10;55.30;;;;;;1518325;77;1196;-60
2023/10/02 03:24:04;;;;;;;;;;;22.00;55.20;;;;;;1528388;77;1375;-59
2023/10/02 03:26:37;;;;;;;;;;;22.10;55.50;;;;;;1515472;77;1939;-60
2023/10/02 03:28:32;;;;;;;;;;;22.10;55.40;;;;;;1515395;77;1781;-61
2023/10/02 03:30:38;;;;;;;;;;;22.10;55.40;;;;;;1516737;77;1202;-59
2023/10/02 03:32:45;;;;;;;;;;;22.10;55.30;;;;;;1520193;77;742;-60
2023/10/02 03:34:48;;;;;;;;;;;22.10;55.60;;;;;;1523731;77;1601;-59
2023/10/02 03:36:47;;;;;;;;;;;22.10;55.40;;;;;;1517374;77;1591;-58
2023/10/02 03:38:51;;;;;;;;;;;22.10;55.50;;;;;;1519228;77;1537;-61
2023/10/02 03:40:59;;;;;;;;;;;22.10;55.30;;;;;;1518099;77;1170;-58
2023/10/02 03:43:18;;;;;;;;;;;22.10;55.20;;;;;;1521945;77;740;-61
2023/10/02 03:45:05;;;;;;;;;;;22.00;55.20;;;;;;1517934;77;1969;-59
2023/10/02 03:47:10;;;;;;;;;;;22.10;55.10;;;;;;1514400;77;1918;-59
2023/10/02 03:49:11;;;;;;;;;;;22.10;55.10;;;;;;1529252;77;1678;-60
2023/10/02 03:51:13;;;;;;;;;;;22.10;55.20;;;;;;1520537;77;1189;-61
2023/10/02 03:53:28;;;;;;;;;;;22.10;55.30;;;;;;1513333;77;618;-59
2023/10/02 03:55:19;;;;;;;;;;;22.10;55.00;;;;;;1518817;77;1636;-60
2023/10/02 03:59:52;;;;;;;;;;;22.10;55.00;;;;;;1524200;77;1695;-61
2023/10/02 04:01:47;;;;;;;;;;;22.10;55.20;;;;;;1512017;77;1694;-59
2023/10/02 04:04:04;;;;;;;;;;;22.10;54.70;;;;;;1518520;77;1521;-60
2023/10/02 04:05:56;;;;;;;;;;;22.10;54.80;;;;;;1511929;77;1925;-59
2023/10/02 04:08:21;;;;;;;;;;;22.10;54.80;;;;;;1523699;77;817;-60
2023/10/02 04:10:19;;;;;;;;;;;22.10;55.10;;;;;;1522490;77;1400;-58
2023/10/02 04:12:22;;;;;;;;;;;22.00;54.40;;;;;;1520799;77;1607;-60
2023/10/02 04:14:33;;;;;;;;;;;22.10;54.50;;;;;;1516309;77;736;-57
2023/10/02 04:16:35;;;;;;;;;;;22.10;54.50;;;;;;1527064;77;713;-59
2023/10/02 04:21:01;;;;;;;;;;;22.10;54.80;;;;;;1518227;77;1634;-61
2023/10/02 04:23:18;;;;;;;;;;;22.00;55.40;;;;;;1511084;77;1669;-59
2023/10/02 04:25:07;;;;;;;;;;;22.10;54.30;;;;;;1513478;77;1723;-59
2023/10/02 04:27:18;;;;;;;;;;;22.10;55.40;;;;;;1516887;77;1917;-58
2023/10/02 04:29:26;;;;;;;;;;;22.10;57.60;;;;;;1514797;77;1772;-61
2023/10/02 04:31:23;;;;;;;;;;;22.10;55.90;;;;;;1517743;77;1668;-58
2023/10/02 04:33:22;;;;;;;;;;;22.10;55.50;;;;;;1512565;77;1405;-57
2023/10/02 04:37:43;;;;;;;;;;;22.00;55.10;;;;;;1423091;82;1159;-58
2023/10/02 04:40:37;;;;;;;;;;;22.10;55.00;;;;;;1460288;77;813;-58
2023/10/02 04:42:09;;;;;;;;;;;22.10;55.10;;;;;;1503898;78;1380;-58
2023/10/02 04:43:58;;;;;;;;;;;22.10;55.00;;;;;;1504326;77;1555;-61
2023/10/02 04:46:08;;;;;;;;;;;22.10;54.80;;;;;;1515117;77;1919;-55
2023/10/02 04:48:09;;;;;;;;;;;22.10;54.80;;;;;;1510081;77;1708;-60
2023/10/02 04:52:14;;;;;;;;;;;22.00;54.50;;;;;;1519851;76;883;-58
2023/10/02 04:54:15;;;;;;;;;;;22.10;54.60;;;;;;1509013;78;1672;-60
2023/10/02 04:58:27;;;;;;;;;;;22.00;54.50;;;;;;1508558;78;711;-59
2023/10/02 05:00:32;;;;;;;;;;;22.10;54.70;;;;;;1516763;78;1619;-59
2023/10/02 05:02:39;;;;;;;;;;;22.10;54.60;;;;;;1510427;77;1592;-58
2023/10/02 05:04:38;;;;;;;;;;;22.10;54.40;;;;;;1513072;78;1671;-58
2023/10/02 05:06:55;;;;;;;;;;;22.00;53.80;;;;;;1518358;78;1918;-59
2023/10/02 05:11:07;;;;;;;;;;;22.00;54.10;;;;;;1509491;78;1242;-59
2023/10/02 05:13:09;;;;;;;;;;;22.00;54.00;;;;;;1514650;78;740;-58
2023/10/02 05:15:20;;;;;;;;;;;22.00;53.80;;;;;;1512183;77;744;-57
2023/10/02 05:17:17;;;;;;;;;;;22.00;53.80;;;;;;1512864;78;1629;-61
2023/10/02 05:19:50;;;;;;;;;;;22.00;53.70;;;;;;1509986;78;755;-61
2023/10/02 05:21:36;;;;;;;;;;;22.10;54.40;;;;;;1511597;78;1376;-60
2023/10/02 05:23:28;;;;;;;;;;;22.10;54.50;;;;;;1517435;78;1691;-57
2023/10/02 05:25:31;;;;;;;;;;;22.00;54.20;;;;;;1511675;78;720;-59
2023/10/02 05:27:35;;;;;;;;;;;22.00;54.00;;;;;;1512957;77;1942;-58
2023/10/02 05:29:41;;;;;;;;;;;22.00;53.90;;;;;;1513949;77;1460;-58
2023/10/02 05:31:41;;;;;;;;;;;22.00;54.50;;;;;;1518571;75;1728;-58
2023/10/02 05:33:43;;;;;;;;;;;22.00;53.90;;;;;;1509734;77;817;-57
2023/10/02 05:35:45;;;;;;;;;;;22.10;53.70;;;;;;1510393;77;655;-61
2023/10/02 05:37:48;;;;;;;;;;;22.00;53.70;;;;;;1517341;77;696;-56
2023/10/02 05:39:50;;;;;;;;;;;22.00;53.90;;;;;;1518084;78;828;-59
2023/10/02 05:41:56;;;;;;;;;;;22.00;53.70;;;;;;1507874;76;1192;-58
2023/10/02 05:43:56;;;;;;;;;;;22.00;53.80;;;;;;1514700;77;1568;-58
2023/10/02 05:45:58;;;;;;;;;;;22.00;53.70;;;;;;1516844;77;743;-58
2023/10/02 05:47:59;;;;;;;;;;;22.00;54.50;;;;;;1512661;77;1947;-58
2023/10/02 05:50:04;;;;;;;;;;;22.00;53.80;;;;;;1511487;77;710;-58
2023/10/02 05:52:07;;;;;;;;;;;22.00;53.80;;;;;;1512268;77;1716;-59
2023/10/02 05:54:09;;;;;;;;;;;22.00;53.90;;;;;;1517102;77;1771;-58
2023/10/02 05:58:23;;;;;;;;;;;22.00;53.70;;;;;;1515259;76;1650;-59
2023/10/02 06:00:20;;;;;;;;;;;22.00;54.00;;;;;;1511787;78;1840;-60
2023/10/02 06:02:22;;;;;;;;;;;22.10;53.80;;;;;;1513367;77;1605;-58
2023/10/02 06:04:29;;;;;;;;;;;22.00;54.10;;;;;;1509719;78;741;-58
2023/10/02 06:06:48;;;;;;;;;;;22.00;54.10;;;;;;1511640;77;1930;-59
2023/10/02 06:08:34;;;;;;;;;;;22.00;54.00;;;;;;1481708;78;1619;-59
2023/10/02 06:10:44;;;;;;;;;;;22.00;53.80;;;;;;1523000;77;1149;-58
2023/10/02 06:12:42;;;;;;;;;;;22.00;54.00;;;;;;1513501;77;1637;-59
2023/10/02 06:14:44;;;;;;;;;;;22.00;54.30;;;;;;1507916;77;1704;-61
2023/10/02 06:16:47;;;;;;;;;;;22.00;54.30;;;;;;1519520;77;740;-61
2023/10/02 06:19:00;;;;;;;;;;;22.00;54.30;;;;;;1508503;78;688;-62
2023/10/02 06:21:03;;;;;;;;;;;22.00;54.40;;;;;;1513241;77;1661;-59
2023/10/02 06:23:06;;;;;;;;;;;22.00;54.70;;;;;;1510225;77;1481;-60
2023/10/02 06:25:00;;;;;;;;;;;22.00;54.20;;;;;;1519444;78;1684;-58
2023/10/02 06:27:05;;;;;;;;;;;22.00;54.70;;;;;;1512995;77;1932;-60
2023/10/02 06:29:22;;;;;;;;;;;22.00;53.90;;;;;;1509169;77;730;-59
2023/10/02 06:31:31;;;;;;;;;;;22.00;54.20;;;;;;1514058;77;1988;-59
2023/10/02 06:33:23;;;;;;;;;;;22.00;54.50;;;;;;1508467;77;1654;-62
2023/10/02 06:35:26;;;;;;;;;;;22.00;54.00;;;;;;1511444;77;674;-60
2023/10/02 06:37:40;;;;;;;;;;;22.10;54.50;;;;;;1515551;77;789;-62
2023/10/02 06:39:35;;;;;;;;;;;22.10;55.30;;;;;;1516654;77;1546;-58
2023/10/02 06:41:38;;;;;;;;;;;22.10;56.00;;;;;;1515937;77;1327;-58
2023/10/02 06:43:40;;;;;;;;;;;22.10;55.40;;;;;;1521706;77;758;-61
2023/10/02 06:45:52;;;;;;;;;;;22.10;55.00;;;;;;1516310;78;729;-58
2023/10/02 06:47:48;;;;;;;;;;;22.10;54.50;;;;;;1515496;77;1923;-60
2023/10/02 06:49:51;;;;;;;;;;;22.00;54.30;;;;;;1513861;78;711;-58
2023/10/02 06:51:54;;;;;;;;;;;22.00;54.10;;;;;;1514854;77;1163;-58
2023/10/02 06:54:07;;;;;;;;;;;22.00;54.00;;;;;;1516182;78;1458;-61
2023/10/02 06:56:09;;;;;;;;;;;22.00;54.10;;;;;;1507668;77;1655;-59
2023/10/02 06:58:03;;;;;;;;;;;21.90;54.20;;;;;;1509814;77;1712;-58
2023/10/02 07:00:09;;;;;;;;;;;21.90;54.20;;;;;;1510651;77;747;-61
2023/10/02 07:02:09;;;;;;;;;;;21.90;54.30;;;;;;1508227;77;1609;-57
2023/10/02 07:04:11;;;;;;;;;;;21.90;54.40;;;;;;1512935;78;715;-58
2023/10/02 07:06:15;;;;;;;;;;;21.90;54.50;;;;;;1515905;77;697;-59
2023/10/02 07:08:26;;;;;;;;;;;21.90;54.40;;;;;;1512608;76;1923;-58
2023/10/02 07:10:29;;;;;;;;;;;21.80;54.50;;;;;;1511081;77;1928;-59
2023/10/02 07:12:32;;;;;;;;;;;21.90;54.60;;;;;;1509793;77;1691;-61
2023/10/02 07:14:35;;;;;;;;;;;21.80;54.50;;;;;;1516303;77;1633;-60
2023/10/02 07:16:37;;;;;;;;;;;21.80;54.60;;;;;;1507957;77;768;-59
2023/10/02 07:18:45;;;;;;;;;;;21.80;54.60;;;;;;1516725;77;742;-59
2023/10/02 07:20:52;;;;;;;;;;;21.80;54.70;;;;;;1511194;77;1693;-60
2023/10/02 07:22:49;;;;;;;;;;;21.70;54.70;;;;;;1520490;77;1779;-58
2023/10/02 07:24:56;;;;;;;;;;;22.20;55.00;;;;;;1522897;77;779;-57
2023/10/02 07:26:56;;;;;;;;;;;21.80;54.80;;;;;;1515232;78;1942;-57
2023/10/02 07:29:00;;;;;;;;;;;21.70;54.90;;;;;;1517640;77;687;-59
2023/10/02 07:31:03;;;;;;;;;;;21.80;55.00;;;;;;1508744;77;1775;-57
2023/10/02 07:33:05;;;;;;;;;;;21.80;55.10;;;;;;1512188;77;1505;-60
2023/10/02 07:35:10;;;;;;;;;;;21.80;55.20;;;;;;1517367;78;694;-59
2023/10/02 07:37:13;;;;;;;;;;;21.80;55.50;;;;;;1512492;77;1440;-59
2023/10/02 07:41:35;;;;;;;;;;;21.80;55.80;;;;;;1515932;77;1637;-57
2023/10/02 07:43:37;;;;;;;;;;;21.90;56.20;;;;;;1513601;77;724;-60
2023/10/02 07:45:39;;;;;;;;;;;21.90;56.30;;;;;;1520406;77;690;-57
2023/10/02 07:50:03;;;;;;;;;;;21.90;56.60;;;;;;1512112;78;1683;-59
2023/10/02 07:52:06;;;;;;;;;;;21.90;56.80;;;;;;1514927;77;1535;-59
2023/10/02 07:54:08;;;;;;;;;;;22.00;57.10;;;;;;1511879;77;748;-60
2023/10/02 07:56:12;;;;;;;;;;;22.00;57.30;;;;;;1516404;78;743;-59
2023/10/02 07:58:19;;;;;;;;;;;22.10;57.30;;;;;;1504533;78;694;-57
2023/10/02 08:00:37;;;;;;;;;;;22.00;57.20;;;;;;1502245;77;1814;-58
2023/10/02 08:02:40;;;;;;;;;;;22.00;57.50;;;;;;1509379;77;1211;-61
2023/10/02 08:04:47;;;;;;;;;;;22.10;57.80;;;;;;1506630;77;1503;-59
2023/10/02 08:06:45;;;;;;;;;;;22.10;57.90;;;;;;1511731;77;1669;-59
2023/10/02 08:08:47;;;;;;;;;;;22.10;58.00;;;;;;1518841;77;1922;-59
2023/10/02 08:10:53;;;;;;;;;;;22.20;58.20;;;;;;1505985;78;1158;-59
2023/10/02 08:12:54;;;;;;;;;;;22.20;58.30;;;;;;1506587;77;755;-57
2023/10/02 08:15:25;;;;;;;;;;;22.20;58.20;;;;;;1520593;78;692;-58
2023/10/02 08:17:18;;;;;;;;;;;22.20;58.20;;;;;;1514951;77;1332;-59
2023/10/02 08:19:12;;;;;;;;;;;22.20;58.10;;;;;;1509231;77;1893;-61
2023/10/02 08:21:14;;;;;;;;;;;22.20;57.90;;;;;;1514212;77;1140;-60
2023/10/02 08:23:22;;;;;;;;;;;22.30;57.90;;;;;;1512456;77;708;-60
2023/10/02 08:25:24;;;;;;;;;;;22.30;57.80;;;;;;1507573;77;735;-58
2023/10/02 08:27:26;;;;;;;;;;;22.30;57.80;;;;;;1520291;77;1932;-59
2023/10/02 08:29:28;;;;;;;;;;;22.40;57.60;;;;;;1509031;77;719;-58
2023/10/02 08:31:32;;;;;;;;;;;22.40;57.70;;;;;;1514462;77;1164;-58
2023/10/02 08:33:33;;;;;;;;;;;22.30;57.50;;;;;;1514202;77;1687;-60
2023/10/02 08:35:40;;;;;;;;;;;22.30;57.30;;;;;;1516240;78;697;-59
2023/10/02 08:37:42;;;;;;;;;;;22.30;57.30;;;;;;1520253;78;711;-58
2023/10/02 08:39:44;;;;;;;;;;;22.40;57.10;;;;;;1513972;78;852;-57
2023/10/02 08:41:50;;;;;;;;;;;22.40;57.00;;;;;;1510722;77;1176;-59
2023/10/02 08:43:50;;;;;;;;;;;22.40;57.00;;;;;;1510790;77;970;-61
2023/10/02 08:45:52;;;;;;;;;;;22.40;56.70;;;;;;1508852;78;853;-60
2023/10/02 08:47:54;;;;;;;;;;;22.40;56.70;;;;;;1516263;76;1930;-59
2023/10/02 08:50:04;;;;;;;;;;;22.50;56.80;;;;;;1514798;78;663;-60
2023/10/02 08:52:09;;;;;;;;;;;22.50;56.60;;;;;;1511611;77;1156;-60
2023/10/02 08:54:12;;;;;;;;;;;22.50;56.60;;;;;;1516971;77;596;-60
2023/10/02 08:56:23;;;;;;;;;;;22.40;56.30;;;;;;1512090;77;1131;-58
2023/10/02 08:58:27;;;;;;;;;;;22.40;56.20;;;;;;1509360;77;700;-60
2023/10/02 09:00:29;;;;;;;;;;;22.40;56.70;;;;;;1517092;77;1627;-57
2023/10/02 09:02:33;;;;;;;;;;;22.40;57.20;;;;;;1520048;77;775;-58
2023/10/02 09:04:35;;;;;;;;;;;22.50;58.40;;;;;;1519198;77;2046;-56
2023/10/02 09:06:41;;;;;;;;;;;22.50;58.10;;;;;;1517251;77;722;-57
2023/10/02 09:09:13;;;;;;;;;;;22.50;58.10;;;;;;1516837;77;1921;-59
2023/10/02 09:10:57;;;;;;;;;;;22.50;58.00;;;;;;1507293;78;1751;-58
2023/10/02 09:13:10;;;;;;;;;;;22.50;57.50;;;;;;1511122;77;1648;-60
2023/10/02 09:15:24;;;;;;;;;;;22.50;57.80;;;;;;1511979;78;1441;-59
2023/10/02 09:17:19;;;;;;;;;;;22.50;57.80;;;;;;1510861;78;1623;-59
2023/10/02 09:19:31;;;;;;;;;;;22.50;57.60;;;;;;1512052;78;733;-58
2023/10/02 09:21:46;;;;;;;;;;;22.50;57.80;;;;;;1512079;78;1150;-58
2023/10/02 09:23:51;;;;;;;;;;;22.50;57.50;;;;;;1509198;78;1736;-60
2023/10/02 09:26:17;;;;;;;;;;;22.50;57.80;;;;;;1505066;78;704;-57
2023/10/02 09:28:23;;;;;;;;;;;22.50;57.70;;;;;;1505834;78;1899;-57
2023/10/02 09:30:36;;;;;;;;;;;22.50;57.70;;;;;;1514155;78;1770;-59
2023/10/02 09:32:28;;;;;;;;;;;22.50;57.70;;;;;;1506112;78;1668;-58
2023/10/02 09:34:30;;;;;;;;;;;22.50;57.70;;;;;;1510197;78;1132;-59
2023/10/02 09:36:48;;;;;;;;;;;22.50;57.70;;;;;;1510258;78;887;-60
2023/10/02 09:38:42;;;;;;;;;;;22.40;57.60;;;;;;1507666;78;1740;-59
2023/10/02 09:43:00;;;;;;;;;;;22.50;57.10;;;;;;1510432;78;1579;-60
2023/10/02 09:45:08;;;;;;;;;;;22.50;57.30;;;;;;1512326;77;1986;-58
2023/10/02 09:47:06;;;;;;;;;;;22.50;57.40;;;;;;1502970;78;1713;-59
2023/10/02 09:49:10;;;;;;;;;;;22.50;57.10;;;;;;1504684;78;1940;-59
2023/10/02 09:51:14;;;;;;;;;;;22.50;57.10;;;;;;1516840;78;1787;-57
2023/10/02 09:53:16;;;;;;;;;;;22.50;57.10;;;;;;1511530;78;1675;-58
2023/10/02 09:55:19;;;;;;;;;;;22.50;57.40;;;;;;1509904;78;745;-60
2023/10/02 09:57:25;;;;;;;;;;;22.50;57.50;;;;;;1510001;78;1699;-57
2023/10/02 09:59:27;;;;;;;;;;;22.50;57.40;;;;;;1513817;78;1743;-60
2023/10/02 10:01:34;;;;;;;;;;;22.50;57.30;;;;;;1513371;78;1188;-59
2023/10/02 10:03:33;;;;;;;;;;;22.50;57.30;;;;;;1509518;78;1597;-58
2023/10/02 10:06:08;;;;;;;;;;;22.50;57.40;;;;;;1511827;78;852;-58
2023/10/02 10:10:45;;;;;;;;;;;22.40;56.80;;;;;;1509429;78;871;-58
2023/10/02 10:12:55;;;;;;;;;;;22.50;56.60;;;;;;1510120;78;1703;-56
2023/10/02 10:14:55;;;;;;;;;;;22.50;57.10;;;;;;1497338;78;1621;-59
2023/10/02 10:16:57;;;;;;;;;;;22.50;57.10;;;;;;1505571;78;1589;-58
2023/10/02 10:24:21;;;;;;;;;;;22.40;56.80;;;;;;1545915;75;877;-59
2023/10/02 10:26:28;;;;;;;;;;;22.50;57.00;;;;;;1552246;75;1655;-59
2023/10/02 10:28:30;;;;;;;;;;;22.50;56.90;;;;;;1549327;75;1920;-58
2023/10/02 10:30:39;;;;;;;;;;;22.50;56.90;;;;;;1542818;75;1162;-60
2023/10/02 10:32:41;;;;;;;;;;;22.50;57.00;;;;;;1550072;76;1630;-60
2023/10/02 10:35:12;;;;;;;;;;;22.40;56.90;;;;;;1545545;75;1671;-57
2023/10/02 10:37:34;;;;;;;;;;;22.50;57.00;;;;;;1547244;75;698;-57
2023/10/02 10:39:57;;;;;;;;;;;22.40;56.90;;;;;;1552304;75;1436;-59
2023/10/02 10:42:01;;;;;;;;;;;22.40;56.80;;;;;;1546159;75;1411;-60
2023/10/02 10:44:11;;;;;;;;;;;22.50;57.00;;;;;;1548358;75;751;-59
2023/10/02 10:46:13;;;;;;;;;;;22.50;57.00;;;;;;1516058;77;1608;-56
2023/10/02 10:48:23;;;;;;;;;;;22.50;57.00;;;;;;1543612;75;1920;-58
2023/10/02 10:50:29;;;;;;;;;;;22.50;57.00;;;;;;1546411;75;1117;-57
2023/10/02 10:52:44;;;;;;;;;;;22.40;56.90;;;;;;1549784;75;698;-57
2023/10/02 10:54:41;;;;;;;;;;;22.50;56.90;;;;;;1541192;75;1501;-60
2023/10/02 10:56:43;;;;;;;;;;;22.50;57.00;;;;;;1544111;75;1785;-60
2023/10/02 10:58:44;;;;;;;;;;;22.50;57.10;;;;;;1547999;75;1593;-59
2023/10/02 11:00:49;;;;;;;;;;;22.50;57.20;;;;;;1543690;75;1822;-58
2023/10/02 11:03:14;;;;;;;;;;;22.40;57.00;;;;;;1553154;75;884;-58
2023/10/02 11:05:13;;;;;;;;;;;22.50;57.10;;;;;;1540709;75;1744;-59
2023/10/02 11:07:25;;;;;;;;;;;22.50;57.10;;;;;;1522003;77;1538;-57
2023/10/02 11:09:24;;;;;;;;;;;22.50;57.20;;;;;;1546735;75;1920;-57
2023/10/02 11:11:30;;;;;;;;;;;22.50;57.20;;;;;;1552038;75;1132;-60
2023/10/02 11:13:29;;;;;;;;;;;22.40;57.00;;;;;;1543834;75;1523;-59
2023/10/02 11:15:47;;;;;;;;;;;22.50;57.20;;;;;;1549870;75;735;-60
2023/10/02 11:17:49;;;;;;;;;;;22.40;57.10;;;;;;1547540;76;711;-58
2023/10/02 11:19:55;;;;;;;;;;;22.50;57.30;;;;;;1551056;75;761;-57
2023/10/02 11:22:15;;;;;;;;;;;22.50;57.30;;;;;;1545421;75;1656;-57
2023/10/02 11:24:21;;;;;;;;;;;22.40;57.30;;;;;;1543668;75;864;-60
2023/10/02 11:26:23;;;;;;;;;;;22.50;57.20;;;;;;1535805;76;1530;-58
2023/10/02 11:28:32;;;;;;;;;;;22.50;57.30;;;;;;1543658;76;1935;-58
2023/10/02 11:30:34;;;;;;;;;;;22.50;57.40;;;;;;1548879;75;1150;-59
2023/10/02 11:32:50;;;;;;;;;;;22.50;57.40;;;;;;1545899;75;716;-57
2023/10/02 11:34:59;;;;;;;;;;;22.40;57.30;;;;;;1548259;76;711;-59
2023/10/02 11:36:56;;;;;;;;;;;22.50;57.40;;;;;;1547232;76;1650;-56
2023/10/02 11:38:58;;;;;;;;;;;22.50;57.40;;;;;;1548133;75;747;-57
2023/10/02 11:41:00;;;;;;;;;;;22.50;57.50;;;;;;1550173;75;1142;-59
2023/10/02 11:43:02;;;;;;;;;;;22.40;57.40;;;;;;1547732;75;704;-59
2023/10/02 11:45:04;;;;;;;;;;;22.50;57.40;;;;;;1550172;75;693;-60
2023/10/02 11:47:09;;;;;;;;;;;22.50;57.40;;;;;;1548657;75;749;-59
2023/10/02 11:49:12;;;;;;;;;;;22.50;57.40;;;;;;1547490;75;1931;-59
2023/10/02 11:51:14;;;;;;;;;;;22.50;57.40;;;;;;1548207;76;1114;-60
2023/10/02 11:53:16;;;;;;;;;;;22.40;57.40;;;;;;1549188;75;686;-59
2023/10/02 11:55:19;;;;;;;;;;;22.40;57.30;;;;;;1544432;76;773;-59
2023/10/02 11:57:21;;;;;;;;;;;22.40;57.30;;;;;;1554115;76;732;-58
2023/10/02 11:59:22;;;;;;;;;;;22.40;57.40;;;;;;1547281;76;862;-57
2023/10/02 12:01:26;;;;;;;;;;;22.40;57.40;;;;;;1543857;75;1185;-59
2023/10/02 12:03:28;;;;;;;;;;;22.40;57.50;;;;;;1548325;76;1559;-57
2023/10/02 12:05:32;;;;;;;;;;;22.40;57.50;;;;;;1543176;75;721;-58
2023/10/02 12:07:34;;;;;;;;;;;22.40;57.50;;;;;;1545017;75;758;-57
2023/10/02 12:09:36;;;;;;;;;;;22.40;57.40;;;;;;1549579;75;1943;-58
2023/10/02 12:11:39;;;;;;;;;;;22.40;57.40;;;;;;1549218;75;1149;-58
2023/10/02 12:13:44;;;;;;;;;;;22.40;57.30;;;;;;1547399;75;736;-60
2023/10/02 12:15:49;;;;;;;;;;;22.40;57.40;;;;;;1543307;75;1113;-59
2023/10/02 12:17:53;;;;;;;;;;;22.40;57.40;;;;;;1550592;75;1996;-60
2023/10/02 12:19:55;;;;;;;;;;;22.40;57.40;;;;;;1549887;76;1487;-57
2023/10/02 12:21:57;;;;;;;;;;;22.40;57.40;;;;;;1552583;75;1161;-59
2023/10/02 12:24:00;;;;;;;;;;;22.40;57.30;;;;;;1545798;75;719;-57
2023/10/02 12:26:04;;;;;;;;;;;22.40;57.40;;;;;;1550655;75;820;-59
2023/10/02 12:28:07;;;;;;;;;;;22.50;57.50;;;;;;1549509;75;750;-60
2023/10/02 12:30:12;;;;;;;;;;;22.40;57.40;;;;;;1539959;75;1897;-60
2023/10/02 12:32:18;;;;;;;;;;;22.40;57.30;;;;;;1546797;75;1605;-61
2023/10/02 12:34:18;;;;;;;;;;;22.40;57.30;;;;;;1546797;75;1067;-58
2023/10/02 12:36:21;;;;;;;;;;;22.40;57.30;;;;;;1549931;76;737;-60
2023/10/02 12:38:24;;;;;;;;;;;22.40;57.40;;;;;;1546948;75;664;-56
2023/10/02 12:40:31;;;;;;;;;;;22.40;57.40;;;;;;1549521;75;1111;-59
2023/10/02 12:42:30;;;;;;;;;;;22.40;57.40;;;;;;1550286;76;1608;-58
2023/10/02 12:44:36;;;;;;;;;;;22.40;57.30;;;;;;1550160;75;800;-58
2023/10/02 12:46:43;;;;;;;;;;;22.40;57.40;;;;;;1543512;75;1593;-60
2023/10/02 12:48:40;;;;;;;;;;;22.40;57.30;;;;;;1549872;75;1928;-57
2023/10/02 12:50:42;;;;;;;;;;;22.40;57.30;;;;;;1546014;76;1158;-58